Flight Track Log - Related Links

Times and Time Zones

All times are in EDT time to prevent confusion due to time zone crossing. See the PDT4170 flight status page for this flight to view local times or setup timezone preferences in your user account.

Time Position Orientation Groundspeed Altitude Reporting Facility
EDT Latitude Longitude Course Direction KTS MPH feet Rate Location/Type
Fri 02:41:44 PM 36.4067 -82.4550 158° South 143 165 4,300  Level Atlanta Center
Fri 02:42:44 PM 36.3669 -82.4478 172° South 161 185 5,400 1,200 Climbing Atlanta Center
Fri 02:43:00 PM 36.4333 -82.1531 90° East  Level FlightAware Approximate
Fri 02:43:44 PM 36.3456 -82.4019 120° Southeast 182 209 6,700  Level Atlanta Center
Fri 02:44:00 PM 36.4137 -82.1069 158° South  Level FlightAware Approximate
Fri 02:45:00 PM 36.3670 -82.0835 158° South  Level FlightAware Approximate
Fri 02:45:00 PM 36.3017 -82.3444 99° East  Level Estimated
Fri 02:45:44 PM 36.3025 -82.3050 99° East 166 191 9,200  Level Atlanta Center
Fri 02:46:00 PM 36.3266 -82.0466 158° South  Level FlightAware Approximate
Fri 02:46:44 PM 36.2747 -82.2617 128° Southeast 166 191 10,300  Level Atlanta Center
Fri 02:47:44 PM 36.2431 -82.2211 134° Southeast 158 182 11,000 300 Climbing Atlanta Center
Fri 02:48:44 PM 36.2128 -82.1628 123° Southeast 185 213 10,900 -50 Descending Atlanta Center
Fri 02:49:44 PM 36.1664 -82.1200 143° Southeast 204 235 10,900  Level Atlanta Center
Fri 02:50:44 PM 36.1092 -82.0753 148° Southeast 232 267 10,900  Level Atlanta Center
Fri 02:51:44 PM 36.0689 -82.0272 136° Southeast 232 267 10,900  Level Atlanta Center
Fri 02:52:44 PM 36.0158 -81.9772 143° Southeast 237 273 10,900  Level Atlanta Center
Fri 02:53:44 PM 35.9631 -81.9272 143° Southeast 237 273 10,900  Level Atlanta Center
Fri 02:54:44 PM 35.9142 -81.8747 139° Southeast 242 278 10,900  Level Atlanta Center
Fri 02:55:44 PM 35.8611 -81.8250 143° Southeast 237 273 10,900  Level Atlanta Center
Fri 02:56:44 PM 35.8100 -81.7750 142° Southeast 237 273 10,900  Level Atlanta Center
Fri 02:57:44 PM 35.7569 -81.7281 144° Southeast 237 273 10,900 -250 Level Atlanta Center
Fri 02:58:44 PM 35.6975 -81.6758 144° Southeast 237 273 10,400 -600 Descending Atlanta Center
Fri 02:59:44 PM 35.6403 -81.6239 144° Southeast 247 284 9,700 -816 Descending Atlanta Center
Fri 03:00:27 PM 35.5997 -81.5842 141° Southeast 256 295 9,000 -404 Descending Atlanta Center
Fri 03:01:28 PM 35.5589 -81.5217 129° Southeast 239 275 9,000  Level Atlanta Center
Fri 03:02:35 PM 35.5114 -81.4492 129° Southeast 233 268 9,000  Level Atlanta Center
Fri 03:03:31 PM 35.4747 -81.3917 128° Southeast 232 267 9,000  Level Atlanta Center
Fri 03:04:38 PM 35.4336 -81.3242 127° Southeast 231 266 9,000  Level Atlanta Center
Fri 03:05:39 PM 35.3883 -81.2594 131° Southeast 230 265 9,000  Level Atlanta Center
Fri 03:06:44 PM 35.3453 -81.1947 129° Southeast 231 266 9,000  Level Atlanta Center
Fri 03:07:36 PM 35.3128 -81.1422 127° Southeast 228 262 9,000  Level Atlanta Center
Fri 03:08:37 PM 35.2758 -81.0775 125° Southeast 228 262 9,000  Level Atlanta Center
Fri 03:09:39 PM 35.2306 -81.0233 136° Southeast 232 267 9,000 -634 Level Atlanta Center
Fri 03:10:40 PM 35.1667 -81.0536 201° Southwest 253 291 7,700 -1,406 Descending Atlanta Center
Fri 03:11:47 PM 35.0856 -81.0667 188° South 251 289 6,000 -791 Descending Atlanta Center
Fri 03:12:49 PM 35.0253 -81.0711 183° South 222 255 6,000  Level Atlanta Center
Fri 03:13:50 PM 34.9625 -81.0683 178° South 213 245 6,000  Level Atlanta Center
Fri 03:14:51 PM 34.9019 -81.0631 176° South 225 259 6,000  Level Atlanta Center
Fri 03:15:53 PM 34.8428 -81.0372 160° South 216 249 6,000 -439 Level Atlanta Center
Fri 03:16:54 PM 34.8453 -80.9714 87° East 193 222 5,100 -492 Descending Atlanta Center
Fri 03:17:55 PM 34.8886 -80.9494 23° Northeast 173 199 5,000 -49 Descending Atlanta Center
Fri 03:18:56 PM 34.9450 -80.9475 North 181 208 5,000 -148 Level Atlanta Center
Fri 03:19:57 PM 34.9950 -80.9506 357° North 189 217 4,700 -683 Descending Atlanta Center
Fri 03:20:59 PM 35.0494 -80.9536 357° North 196 226 3,600 -1,065 Descending Atlanta Center

Login

Don't have an account? Register now (free) for customized features, flight alerts, and more!